Time;durP1;ratioP1;P1;durP2;ratioP2;P2;SDS_P1;SDS_P2;PMS_P1;PMS_P2;Temp;Humidity;BMP_temperature;BMP_pressure;BME280_temperature;BME280_humidity;BME280_pressure;Samples;Min_cycle;Max_cycle;Signal;HPM_P1;HPM_P2
2023/01/09 00:01:19;;;;;;;8.88;2.42;;;7.20;99.90;;;;;;5073829;28;20044;-67
2023/01/09 00:03:45;;;;;;;7.00;2.28;;;7.20;99.90;;;;;;5073745;28;20066;-66
2023/01/09 00:06:11;;;;;;;7.90;2.47;;;7.20;99.90;;;;;;5056324;28;20041;-66
2023/01/09 00:08:36;;;;;;;4.90;2.05;;;7.10;99.90;;;;;;5039732;28;20044;-67
2023/01/09 00:11:02;;;;;;;5.90;2.17;;;7.10;99.90;;;;;;5055480;28;20052;-66
2023/01/09 00:13:28;;;;;;;6.40;2.22;;;7.10;99.90;;;;;;5039414;28;20040;-66
2023/01/09 00:15:54;;;;;;;6.22;2.30;;;7.10;99.90;;;;;;5055767;28;20182;-67
2023/01/09 00:18:19;;;;;;;7.43;2.53;;;7.00;99.90;;;;;;5073445;28;20067;-67
2023/01/09 00:20:45;;;;;;;6.90;2.67;;;7.00;99.90;;;;;;5055922;28;20115;-67
2023/01/09 00:23:11;;;;;;;5.88;2.38;;;7.00;99.90;;;;;;5073691;28;20037;-67
2023/01/09 00:25:36;;;;;;;6.32;2.60;;;7.00;99.90;;;;;;5073551;28;20039;-67
2023/01/09 00:28:02;;;;;;;6.35;2.65;;;7.00;99.90;;;;;;5055728;28;20040;-66
2023/01/09 00:30:28;;;;;;;6.78;3.17;;;7.00;99.90;;;;;;5055342;28;20036;-67
2023/01/09 00:32:55;;;;;;;6.20;2.10;;;7.00;99.90;;;;;;5073061;28;20076;-67
2023/01/09 00:35:23;;;;;;;7.00;2.13;;;7.00;99.90;;;;;;5055456;28;20037;-67
2023/01/09 00:37:48;;;;;;;6.95;2.17;;;7.00;99.90;;;;;;5073119;28;20454;-67
2023/01/09 00:40:15;;;;;;;6.07;2.40;;;7.00;99.90;;;;;;5055040;28;20127;-67
2023/01/09 00:42:43;;;;;;;4.80;2.25;;;7.00;99.90;;;;;;5072054;28;20078;-67
2023/01/09 00:45:18;;;;;;;9.73;3.10;;;7.00;99.90;;;;;;5054857;28;20076;-66
2023/01/09 00:47:48;;;;;;;8.52;2.20;;;7.10;99.90;;;;;;5073534;28;20052;-66
2023/01/09 00:50:18;;;;;;;4.65;1.83;;;7.10;99.90;;;;;;5055012;28;20053;-67
2023/01/09 00:52:45;;;;;;;6.63;1.88;;;7.10;99.90;;;;;;5072654;28;20043;-66
2023/01/09 00:55:12;;;;;;;6.57;2.10;;;7.10;99.90;;;;;;5072886;28;20052;-66
2023/01/09 00:57:38;;;;;;;6.82;2.10;;;7.10;99.90;;;;;;5073288;28;20041;-66
2023/01/09 01:00:05;;;;;;;7.63;2.58;;;7.10;99.90;;;;;;5072441;28;20097;-67
2023/01/09 01:02:30;;;;;;;5.82;2.30;;;7.10;99.90;;;;;;5038606;28;20041;-67
2023/01/09 01:07:41;;;;;;;5.70;2.25;;;7.10;99.90;;;;;;5072537;28;20059;-67
2023/01/09 01:10:16;;;;;;;4.18;1.75;;;7.10;99.90;;;;;;5072967;28;20041;-67
2023/01/09 01:12:42;;;;;;;9.18;2.05;;;7.10;99.90;;;;;;5055118;28;20389;-67
2023/01/09 01:15:09;;;;;;;5.97;1.92;;;7.10;99.90;;;;;;5054608;28;20385;-66
2023/01/09 01:17:37;;;;;;;6.03;2.08;;;7.10;99.90;;;;;;5055391;28;20036;-66
2023/01/09 01:20:05;;;;;;;9.95;2.35;;;7.10;99.90;;;;;;5072316;28;20047;-67
2023/01/09 01:22:30;;;;;;;10.15;2.20;;;7.10;99.90;;;;;;5072207;28;20091;-66
2023/01/09 01:24:56;;;;;;;8.95;2.45;;;7.10;99.90;;;;;;5072194;28;20090;-66
2023/01/09 01:27:22;;;;;;;5.15;2.03;;;7.10;99.90;;;;;;5072058;28;20051;-67
2023/01/09 01:29:47;;;;;;;5.95;2.15;;;7.10;99.90;;;;;;5054596;28;20037;-67
2023/01/09 01:32:13;;;;;;;8.75;2.38;;;7.20;99.90;;;;;;5054307;28;20524;-66
2023/01/09 01:34:39;;;;;;;8.00;2.25;;;7.20;99.90;;;;;;5054194;28;20498;-66
2023/01/09 01:37:04;;;;;;;6.70;2.25;;;7.20;99.90;;;;;;5072388;28;20496;-67
2023/01/09 01:39:30;;;;;;;6.97;2.30;;;7.20;99.90;;;;;;5072464;28;20463;-67
2023/01/09 01:41:56;;;;;;;6.10;2.35;;;7.20;99.90;;;;;;5037196;28;20523;-66
2023/01/09 01:44:55;;;;;;;7.53;2.55;;;7.20;99.90;;;;;;5054348;28;20078;-67
2023/01/09 01:47:25;;;;;;;6.68;2.50;;;7.20;99.90;;;;;;5053848;28;20037;-66
2023/01/09 01:49:52;;;;;;;8.57;2.38;;;7.20;99.90;;;;;;5053517;28;20060;-67
2023/01/09 01:52:18;;;;;;;6.85;2.58;;;7.10;99.90;;;;;;5054257;28;20044;-66
2023/01/09 01:54:45;;;;;;;6.63;2.33;;;7.10;99.90;;;;;;5071638;28;20040;-67
2023/01/09 01:57:11;;;;;;;7.22;2.30;;;7.10;99.90;;;;;;5053575;28;20058;-66
2023/01/09 01:59:41;;;;;;;7.63;2.42;;;7.10;99.90;;;;;;5054377;28;20040;-66
2023/01/09 02:02:08;;;;;;;7.97;3.42;;;7.00;99.90;;;;;;5072107;28;20055;-66
2023/01/09 02:04:38;;;;;;;7.18;2.70;;;6.90;99.90;;;;;;5053877;28;20083;-66
2023/01/09 02:07:08;;;;;;;7.80;2.42;;;7.00;99.90;;;;;;5071547;28;20048;-67
2023/01/09 02:09:34;;;;;;;7.15;2.45;;;6.90;99.90;;;;;;5071711;28;20037;-67
2023/01/09 02:12:14;;;;;;;9.57;2.72;;;6.90;99.90;;;;;;5053862;28;20039;-67
2023/01/09 02:14:40;;;;;;;10.65;2.88;;;6.80;99.90;;;;;;5054362;28;20377;-67
2023/01/09 02:17:08;;;;;;;8.98;2.08;;;6.80;99.90;;;;;;5052943;28;20124;-67
2023/01/09 02:19:37;;;;;;;10.40;2.05;;;6.70;99.90;;;;;;5054527;28;20079;-66
2023/01/09 02:22:39;;;;;;;9.98;2.10;;;6.70;99.90;;;;;;5053661;28;20124;-66
2023/01/09 02:25:59;;;;;;;6.90;2.35;;;6.70;99.90;;;;;;5071262;28;20362;-67
2023/01/09 02:28:45;;;;;;;9.50;2.28;;;6.60;99.90;;;;;;4954785;28;20101;-67
2023/01/09 02:31:48;;;;;;;6.88;1.75;;;6.60;99.90;;;;;;5053176;28;20044;-66
2023/01/09 02:34:19;;;;;;;7.90;2.10;;;6.60;99.90;;;;;;5053632;28;20037;-66
2023/01/09 02:36:51;;;;;;;7.13;2.28;;;6.50;99.90;;;;;;5053482;28;20045;-66
2023/01/09 02:39:26;;;;;;;10.45;2.30;;;6.50;99.90;;;;;;5053438;28;20086;-67
2023/01/09 02:42:00;;;;;;;7.15;2.13;;;6.50;99.90;;;;;;5071715;28;20075;-67
2023/01/09 02:44:28;;;;;;;9.07;2.45;;;6.50;99.90;;;;;;5071852;28;20036;-67
2023/01/09 02:47:02;;;;;;;8.60;2.53;;;6.40;99.90;;;;;;5071027;28;20045;-66
2023/01/09 02:49:29;;;;;;;5.50;2.03;;;6.40;99.90;;;;;;5050128;28;20502;-66
2023/01/09 02:52:53;;;;;;;8.73;2.55;;;6.30;99.90;;;;;;5050084;28;20139;-66
2023/01/09 02:55:27;;;;;;;9.40;2.88;;;6.30;99.90;;;;;;4992933;28;20119;-66
2023/01/09 02:58:08;;;;;;;6.25;2.13;;;6.30;99.90;;;;;;5051333;28;20072;-66
2023/01/09 03:00:40;;;;;;;5.85;2.42;;;6.30;99.90;;;;;;5051342;28;20045;-66
2023/01/09 03:03:17;;;;;;;8.27;3.00;;;6.30;99.90;;;;;;5051311;28;20072;-67
2023/01/09 03:06:01;;;;;;;9.93;2.72;;;6.20;99.90;;;;;;5051626;28;20044;-66
2023/01/09 03:08:33;;;;;;;7.90;2.65;;;6.20;99.90;;;;;;5053991;28;20052;-67
2023/01/09 03:11:05;;;;;;;7.63;2.42;;;6.20;99.90;;;;;;5037028;28;20045;-67
2023/01/09 03:13:56;;;;;;;7.22;2.53;;;6.20;99.90;;;;;;5054955;28;20397;-67
2023/01/09 03:16:35;;;;;;;10.80;3.65;;;6.10;99.90;;;;;;5050007;28;20131;-67
2023/01/09 03:19:05;;;;;;;10.05;2.45;;;6.10;99.90;;;;;;5053648;28;20924;-67
2023/01/09 03:21:32;;;;;;;7.82;2.38;;;6.10;99.90;;;;;;5054840;28;20116;-67
2023/01/09 03:24:00;;;;;;;6.95;2.40;;;6.00;99.90;;;;;;5055149;28;20044;-67
2023/01/09 03:26:28;;;;;;;7.53;2.38;;;6.00;99.90;;;;;;5053632;28;20051;-67
2023/01/09 03:28:54;;;;;;;9.95;2.33;;;6.00;99.90;;;;;;5052973;28;20051;-67
2023/01/09 03:31:21;;;;;;;10.98;2.70;;;5.90;99.90;;;;;;5054370;28;20036;-67
2023/01/09 03:33:47;;;;;;;11.52;3.25;;;5.90;99.90;;;;;;5053534;28;20060;-67
2023/01/09 03:36:14;;;;;;;8.18;2.10;;;5.80;99.90;;;;;;5053021;28;20041;-67
2023/01/09 03:38:40;;;;;;;8.52;2.17;;;5.80;99.90;;;;;;5053523;28;20041;-67
2023/01/09 03:41:06;;;;;;;12.45;2.55;;;5.80;99.90;;;;;;5053772;28;20124;-67
2023/01/09 03:43:31;;;;;;;7.63;2.70;;;5.70;99.90;;;;;;5054606;28;20048;-67
2023/01/09 03:45:58;;;;;;;13.77;3.58;;;5.70;99.90;;;;;;5053101;28;20051;-67
2023/01/09 03:48:24;;;;;;;6.10;2.20;;;5.70;99.90;;;;;;5052438;28;20140;-67
2023/01/09 03:50:51;;;;;;;7.15;2.40;;;5.70;99.90;;;;;;5053448;28;20182;-67
2023/01/09 03:53:18;;;;;;;6.63;2.45;;;5.60;99.90;;;;;;5052907;28;20041;-67
2023/01/09 03:55:48;;;;;;;6.47;2.60;;;5.60;99.90;;;;;;5052563;28;20111;-67
2023/01/09 03:58:15;;;;;;;10.30;3.33;;;5.60;99.90;;;;;;5054195;28;20406;-67
2023/01/09 04:00:44;;;;;;;6.95;2.60;;;5.60;99.90;;;;;;5054242;28;20111;-67
2023/01/09 04:03:10;;;;;;;11.80;2.97;;;5.70;99.90;;;;;;5052629;28;20041;-67
2023/01/09 04:05:36;;;;;;;10.13;2.50;;;5.70;99.90;;;;;;5053226;28;20044;-67
2023/01/09 04:08:02;;;;;;;9.70;3.05;;;5.70;99.90;;;;;;5053858;28;20090;-67
2023/01/09 04:10:27;;;;;;;8.18;2.92;;;5.70;99.90;;;;;;5052455;28;20037;-67
2023/01/09 04:12:53;;;;;;;8.60;2.72;;;5.70;99.90;;;;;;5053885;28;20037;-67
2023/01/09 04:15:19;;;;;;;7.00;2.72;;;5.70;99.90;;;;;;5053665;28;20048;-67
2023/01/09 04:17:44;;;;;;;11.30;3.63;;;5.70;99.90;;;;;;5053288;28;20033;-66
2023/01/09 04:20:10;;;;;;;8.68;3.15;;;5.70;99.90;;;;;;5052552;28;20041;-67
2023/01/09 04:22:36;;;;;;;6.78;3.17;;;5.70;99.90;;;;;;5054304;28;20040;-67
2023/01/09 04:25:02;;;;;;;8.35;3.03;;;5.70;99.90;;;;;;5053311;28;20106;-67
2023/01/09 04:27:28;;;;;;;9.15;2.80;;;5.70;99.90;;;;;;5052167;28;20569;-67
2023/01/09 04:29:54;;;;;;;7.43;3.08;;;5.70;99.90;;;;;;5052323;28;20737;-67
2023/01/09 04:32:19;;;;;;;8.45;2.72;;;5.60;99.90;;;;;;5053005;28;20037;-67
2023/01/09 04:34:45;;;;;;;10.27;3.30;;;5.70;99.90;;;;;;5052255;28;20052;-67
2023/01/09 04:37:11;;;;;;;8.38;3.38;;;5.60;99.90;;;;;;5053302;28;20041;-67
2023/01/09 04:39:36;;;;;;;7.65;3.22;;;5.60;99.90;;;;;;5052702;28;20045;-67
2023/01/09 04:42:02;;;;;;;7.68;3.22;;;5.70;99.90;;;;;;5052013;28;20041;-67
2023/01/09 04:44:28;;;;;;;10.57;4.28;;;5.70;99.90;;;;;;5051483;28;20107;-67
2023/01/09 04:46:56;;;;;;;7.40;3.97;;;5.60;99.90;;;;;;5052382;28;20045;-67
2023/01/09 04:49:22;;;;;;;8.90;3.30;;;5.70;99.90;;;;;;5051717;28;20044;-67
2023/01/09 04:51:48;;;;;;;6.78;3.88;;;5.70;99.90;;;;;;5051746;28;20131;-67
2023/01/09 04:54:14;;;;;;;8.68;3.45;;;5.70;99.90;;;;;;5051867;28;20041;-67
2023/01/09 04:56:40;;;;;;;8.60;3.70;;;5.70;99.90;;;;;;5051976;28;20041;-66
2023/01/09 04:59:06;;;;;;;8.70;3.50;;;5.70;99.90;;;;;;5034578;28;20047;-67
2023/01/09 05:01:32;;;;;;;8.25;3.63;;;5.70;99.90;;;;;;5052144;28;20049;-67
2023/01/09 05:03:58;;;;;;;8.82;4.00;;;5.60;99.90;;;;;;5051811;28;20504;-67
2023/01/09 05:06:24;;;;;;;10.75;3.50;;;5.60;99.90;;;;;;5051338;28;20052;-67
2023/01/09 05:08:50;;;;;;;11.77;3.60;;;5.50;99.90;;;;;;5052872;28;20033;-66
2023/01/09 05:11:16;;;;;;;8.02;3.63;;;5.60;99.90;;;;;;5052630;28;20041;-67
2023/01/09 05:13:41;;;;;;;8.48;4.45;;;5.50;99.90;;;;;;5051045;28;20041;-67
2023/01/09 05:16:07;;;;;;;8.85;3.50;;;5.50;99.90;;;;;;5053185;28;20033;-67
2023/01/09 05:18:33;;;;;;;9.25;3.85;;;5.40;99.90;;;;;;5052878;28;20040;-67
2023/01/09 05:20:59;;;;;;;9.05;4.15;;;5.40;99.90;;;;;;5050962;28;20477;-67
2023/01/09 05:23:24;;;;;;;10.00;4.40;;;5.30;99.90;;;;;;5052387;28;20126;-67
2023/01/09 05:25:50;;;;;;;9.70;4.50;;;5.30;99.90;;;;;;5052480;28;20130;-66
2023/01/09 05:28:16;;;;;;;16.30;4.68;;;5.40;99.90;;;;;;5033743;28;20049;-67
2023/01/09 05:30:41;;;;;;;11.40;5.05;;;5.40;99.90;;;;;;5051290;28;20128;-67
2023/01/09 05:33:07;;;;;;;8.98;4.25;;;5.40;99.90;;;;;;5034892;28;20087;-67
2023/01/09 05:35:33;;;;;;;11.73;5.50;;;5.40;99.90;;;;;;5034227;28;20037;-66
2023/01/09 05:37:59;;;;;;;9.35;4.75;;;5.50;99.90;;;;;;5052284;28;20052;-67
2023/01/09 05:40:24;;;;;;;12.13;5.35;;;5.50;99.90;;;;;;5051237;28;20453;-67
2023/01/09 05:42:50;;;;;;;10.77;4.75;;;5.50;99.90;;;;;;5034185;28;20076;-67
2023/01/09 05:45:16;;;;;;;12.45;5.13;;;5.60;99.90;;;;;;5050784;28;20047;-66
2023/01/09 05:47:44;;;;;;;8.55;4.68;;;5.60;99.90;;;;;;5050572;28;20094;-67
2023/01/09 05:50:11;;;;;;;10.02;5.20;;;5.60;99.90;;;;;;5034034;28;20063;-67
2023/01/09 05:52:37;;;;;;;10.75;5.47;;;5.70;99.90;;;;;;5034660;28;20143;-67
2023/01/09 05:55:03;;;;;;;10.93;5.57;;;5.70;99.90;;;;;;5051474;28;20115;-67
2023/01/09 05:57:29;;;;;;;9.85;5.18;;;5.70;99.90;;;;;;5050947;28;20041;-67
2023/01/09 05:59:54;;;;;;;11.73;6.22;;;5.70;99.90;;;;;;5050728;28;20436;-67
2023/01/09 06:02:20;;;;;;;11.73;5.90;;;5.70;99.90;;;;;;5050254;28;20057;-66
2023/01/09 06:04:45;;;;;;;15.25;6.35;;;5.70;99.90;;;;;;5052412;28;20086;-67
2023/01/09 06:07:11;;;;;;;9.52;5.80;;;5.70;99.90;;;;;;5033843;28;20048;-67
2023/01/09 06:09:37;;;;;;;11.52;6.75;;;5.70;99.90;;;;;;5050251;28;20041;-67
2023/01/09 06:12:03;;;;;;;16.98;6.75;;;5.70;99.90;;;;;;5050774;28;20044;-67
2023/01/09 06:14:28;;;;;;;16.35;6.53;;;5.70;99.90;;;;;;5051013;28;20041;-67
2023/01/09 06:16:54;;;;;;;16.65;8.70;;;5.80;99.90;;;;;;5050350;28;20041;-66
2023/01/09 06:19:20;;;;;;;13.00;7.72;;;5.70;99.90;;;;;;5050541;28;20498;-67
2023/01/09 06:21:45;;;;;;;13.40;7.68;;;5.70;99.90;;;;;;5050240;28;20079;-66
2023/01/09 06:24:11;;;;;;;13.85;7.82;;;5.70;99.90;;;;;;5051233;28;20041;-67
2023/01/09 06:26:37;;;;;;;14.60;8.38;;;5.70;99.90;;;;;;5051782;28;20041;-67
2023/01/09 06:29:02;;;;;;;18.65;9.40;;;5.70;99.90;;;;;;5050478;28;20044;-67
2023/01/09 06:31:28;;;;;;;19.77;9.63;;;5.80;99.90;;;;;;5051383;28;20044;-67
2023/01/09 06:33:54;;;;;;;15.77;9.13;;;5.80;99.90;;;;;;5051488;28;20033;-67
2023/01/09 06:36:20;;;;;;;15.02;9.80;;;5.80;99.90;;;;;;5051615;28;20037;-67
2023/01/09 06:38:46;;;;;;;15.60;10.00;;;5.80;99.90;;;;;;5051005;28;20077;-67
2023/01/09 06:41:11;;;;;;;15.02;10.50;;;5.80;99.90;;;;;;5054126;28;20080;-67
2023/01/09 06:43:37;;;;;;;16.02;9.57;;;5.80;99.90;;;;;;5056014;28;20069;-67
2023/01/09 06:46:04;;;;;;;15.98;9.85;;;5.80;99.90;;;;;;5055278;28;20044;-67
2023/01/09 06:48:31;;;;;;;17.48;12.00;;;5.80;99.90;;;;;;5054316;28;20102;-67
2023/01/09 06:50:57;;;;;;;15.18;10.48;;;5.80;99.90;;;;;;5053829;28;20045;-67
2023/01/09 06:53:22;;;;;;;13.85;9.50;;;5.80;99.90;;;;;;5054115;28;20041;-67
2023/01/09 06:55:48;;;;;;;19.20;11.63;;;5.80;99.90;;;;;;5054112;28;20036;-67
2023/01/09 06:58:14;;;;;;;16.92;10.98;;;5.80;99.90;;;;;;5053562;28;20052;-67
2023/01/09 07:00:40;;;;;;;18.27;10.82;;;5.80;99.90;;;;;;5054778;28;20185;-67
2023/01/09 07:03:06;;;;;;;18.30;11.55;;;5.80;99.90;;;;;;5055091;28;20505;-66
2023/01/09 07:05:40;;;;;;;17.75;10.95;;;5.80;99.90;;;;;;5054985;28;20040;-67
2023/01/09 07:08:06;;;;;;;20.30;11.75;;;5.80;99.90;;;;;;5037186;28;20045;-67
2023/01/09 07:10:32;;;;;;;15.60;10.43;;;5.80;99.90;;;;;;5046713;28;20188;-67
2023/01/09 07:12:58;;;;;;;17.27;11.05;;;5.80;99.90;;;;;;5033403;28;20522;-67
2023/01/09 07:15:23;;;;;;;18.38;11.77;;;5.80;99.90;;;;;;5033730;28;20045;-67
2023/01/09 07:17:53;;;;;;;17.40;10.98;;;5.80;99.90;;;;;;5017224;28;20048;-68
2023/01/09 07:20:18;;;;;;;17.75;10.93;;;5.80;99.90;;;;;;5016786;28;20038;-67
2023/01/09 07:22:45;;;;;;;17.95;12.15;;;5.80;99.90;;;;;;5033493;28;20048;-67
2023/01/09 07:25:11;;;;;;;18.35;10.68;;;5.80;99.90;;;;;;5014185;28;20053;-67
2023/01/09 07:27:37;;;;;;;15.15;10.27;;;5.80;99.90;;;;;;5014014;28;20033;-67
2023/01/09 07:30:05;;;;;;;18.80;10.95;;;5.80;99.90;;;;;;5016829;28;20509;-67
2023/01/09 07:32:31;;;;;;;15.63;9.88;;;5.70;99.90;;;;;;5032209;28;20497;-67
2023/01/09 07:34:57;;;;;;;14.63;10.38;;;5.70;99.90;;;;;;5030899;28;20065;-67
2023/01/09 07:37:23;;;;;;;17.33;11.80;;;5.70;99.90;;;;;;5032343;28;20041;-67
2023/01/09 07:39:48;;;;;;;17.38;10.02;;;5.70;99.90;;;;;;5031637;28;20048;-67
2023/01/09 07:42:14;;;;;;;16.50;9.75;;;5.70;99.90;;;;;;5030387;28;20073;-67
2023/01/09 07:44:40;;;;;;;17.08;10.15;;;5.70;99.90;;;;;;5015123;28;20417;-67
2023/01/09 07:47:06;;;;;;;14.38;10.32;;;5.70;99.90;;;;;;5021339;28;20053;-67
2023/01/09 07:49:32;;;;;;;16.77;10.15;;;5.60;99.90;;;;;;5026924;28;20573;-67
2023/01/09 07:51:58;;;;;;;13.93;8.70;;;5.60;99.90;;;;;;5023421;28;20123;-67
2023/01/09 07:54:24;;;;;;;16.42;8.48;;;5.60;99.90;;;;;;5035947;28;20042;-67
2023/01/09 07:56:50;;;;;;;16.88;9.52;;;5.60;99.90;;;;;;5049154;28;20043;-67
2023/01/09 07:59:15;;;;;;;14.95;9.32;;;5.70;99.90;;;;;;5033866;28;20042;-67
2023/01/09 08:01:41;;;;;;;15.65;9.52;;;5.60;99.90;;;;;;5030116;28;20043;-67
2023/01/09 08:04:07;;;;;;;14.98;8.90;;;5.60;99.90;;;;;;5031544;28;20045;-67
2023/01/09 08:06:32;;;;;;;15.32;9.52;;;5.60;99.90;;;;;;5029166;28;20056;-67
2023/01/09 08:08:58;;;;;;;14.57;9.70;;;5.60;99.90;;;;;;5029871;28;20051;-67
2023/01/09 08:11:25;;;;;;;17.98;8.88;;;5.60;99.90;;;;;;5030168;28;20490;-67
2023/01/09 08:13:50;;;;;;;12.93;7.82;;;5.70;99.90;;;;;;5030250;28;20045;-66
2023/01/09 08:16:16;;;;;;;16.98;7.78;;;5.70;99.90;;;;;;5014770;28;20070;-67
2023/01/09 08:18:42;;;;;;;13.98;7.85;;;5.60;99.90;;;;;;5010424;28;20442;-67
2023/01/09 08:21:10;;;;;;;13.35;7.90;;;5.70;99.90;;;;;;5010767;28;20407;-67
2023/01/09 08:23:35;;;;;;;13.57;7.28;;;5.70;99.90;;;;;;5017170;28;20063;-66
2023/01/09 08:26:01;;;;;;;13.85;7.63;;;5.70;99.90;;;;;;5021939;28;20756;-66
2023/01/09 08:28:27;;;;;;;10.30;6.68;;;5.70;99.90;;;;;;5047617;28;20052;-66
2023/01/09 08:30:54;;;;;;;15.50;8.00;;;5.70;99.90;;;;;;4999789;28;20036;-66
2023/01/09 08:33:20;;;;;;;12.38;6.88;;;5.70;99.90;;;;;;5001136;28;20137;-66
2023/01/09 08:35:46;;;;;;;12.18;6.55;;;5.80;99.90;;;;;;5025746;28;20042;-66
2023/01/09 08:38:11;;;;;;;12.98;7.00;;;5.80;99.90;;;;;;5018992;28;20040;-66
2023/01/09 08:40:37;;;;;;;12.43;6.95;;;5.80;99.90;;;;;;5025905;28;20140;-66
2023/01/09 08:48:31;;;;;;;11.35;6.75;;;5.80;99.90;;;;;;5039725;28;20140;-66
2023/01/09 08:50:57;;;;;;;14.13;7.22;;;5.80;99.90;;;;;;5031824;28;20612;-66
2023/01/09 08:53:22;;;;;;;11.52;6.30;;;5.90;99.90;;;;;;5032538;28;20045;-65
2023/01/09 08:55:48;;;;;;;16.35;7.15;;;5.90;99.90;;;;;;5027885;28;20501;-66
2023/01/09 08:58:14;;;;;;;11.45;7.15;;;5.90;99.90;;;;;;5012192;28;20124;-66
2023/01/09 09:00:40;;;;;;;12.75;6.78;;;5.90;99.90;;;;;;5030865;28;20113;-66
2023/01/09 09:03:06;;;;;;;13.82;6.70;;;6.00;99.90;;;;;;5027354;28;20075;-67
2023/01/09 09:05:32;;;;;;;15.00;7.07;;;5.90;99.90;;;;;;5031315;28;20397;-66
2023/01/09 09:07:58;;;;;;;9.90;5.75;;;6.00;99.90;;;;;;5035743;28;20038;-66
2023/01/09 09:10:26;;;;;;;15.05;6.65;;;6.00;99.90;;;;;;5023169;28;20045;-66
2023/01/09 09:12:55;;;;;;;10.27;6.32;;;6.00;99.90;;;;;;5022209;28;20052;-66
2023/01/09 09:15:25;;;;;;;13.05;5.82;;;6.00;99.90;;;;;;5028769;28;20486;-66
2023/01/09 09:18:02;;;;;;;12.73;7.22;;;6.00;99.90;;;;;;5037854;28;20041;-66
2023/01/09 09:20:31;;;;;;;12.85;6.03;;;6.10;99.90;;;;;;5025794;28;20212;-66
2023/01/09 09:22:57;;;;;;;11.40;6.03;;;6.10;99.90;;;;;;5038746;28;20415;-66
2023/01/09 09:25:30;;;;;;;11.63;6.53;;;6.10;99.90;;;;;;5086981;27;20967;-66
2023/01/09 09:27:56;;;;;;;11.48;5.93;;;6.10;99.90;;;;;;5073512;28;20045;-66
2023/01/09 09:30:22;;;;;;;13.32;6.47;;;6.10;99.90;;;;;;5079376;28;20477;-67
2023/01/09 09:32:48;;;;;;;9.70;6.03;;;6.10;99.90;;;;;;5071026;28;20036;-67
2023/01/09 09:35:16;;;;;;;13.85;6.47;;;6.10;99.90;;;;;;5086864;28;20119;-66
2023/01/09 09:37:42;;;;;;;10.90;6.40;;;6.20;99.90;;;;;;5071892;28;20055;-66
2023/01/09 09:40:50;;;;;;;11.52;6.93;;;6.20;99.90;;;;;;5066269;28;20135;-66
2023/01/09 09:45:59;;;;;;;12.98;6.60;;;6.30;99.90;;;;;;5066183;28;20068;-66
2023/01/09 09:48:37;;;;;;;11.82;6.35;;;6.30;99.90;;;;;;5054646;28;20106;-66
2023/01/09 09:51:26;;;;;;;12.63;6.00;;;6.40;99.90;;;;;;5066535;28;20037;-66
2023/01/09 09:54:01;;;;;;;13.70;6.00;;;6.40;99.90;;;;;;5064557;28;20052;-66
2023/01/09 09:56:31;;;;;;;13.27;5.65;;;6.40;99.90;;;;;;5065433;28;20450;-66
2023/01/09 09:59:03;;;;;;;12.63;5.63;;;6.40;99.90;;;;;;5049354;28;20103;-66
2023/01/09 10:02:07;;;;;;;10.32;5.45;;;6.50;99.90;;;;;;5064815;28;20048;-65
2023/01/09 10:04:37;;;;;;;11.80;6.43;;;6.50;99.90;;;;;;5068932;28;20044;-66
2023/01/09 10:07:23;;;;;;;11.15;5.60;;;6.50;99.90;;;;;;5066046;28;20119;-66
2023/01/09 10:09:53;;;;;;;10.45;5.60;;;6.50;99.90;;;;;;5066759;28;20052;-66
2023/01/09 10:12:28;;;;;;;9.75;5.35;;;6.50;99.90;;;;;;5056822;28;20123;-66
2023/01/09 10:14:59;;;;;;;10.45;5.78;;;6.60;99.90;;;;;;5066497;28;20100;-66
2023/01/09 10:17:54;;;;;;;11.70;5.82;;;6.60;99.90;;;;;;5067289;28;20099;-65
2023/01/09 10:20:36;;;;;;;10.35;5.68;;;6.60;99.90;;;;;;5044715;28;20053;-65
2023/01/09 10:23:24;;;;;;;13.80;5.45;;;6.70;99.90;;;;;;5047825;28;20049;-66
2023/01/09 10:26:15;;;;;;;10.18;5.70;;;6.70;99.90;;;;;;5046761;28;20076;-65
2023/01/09 10:29:25;;;;;;;11.35;5.88;;;6.80;99.90;;;;;;5065331;28;20049;-66
2023/01/09 10:32:04;;;;;;;10.98;5.43;;;6.80;99.90;;;;;;5059730;28;20071;-65
2023/01/09 10:34:42;;;;;;;8.50;5.25;;;6.80;99.90;;;;;;5068296;28;20045;-66
2023/01/09 10:37:13;;;;;;;11.10;5.13;;;6.80;99.90;;;;;;5053435;28;20120;-66
2023/01/09 10:39:53;;;;;;;9.75;5.65;;;6.80;99.90;;;;;;5053697;28;20397;-65
2023/01/09 10:42:30;;;;;;;12.35;5.70;;;6.90;99.90;;;;;;5052671;28;20045;-66
2023/01/09 10:45:21;;;;;;;11.23;6.00;;;6.90;99.90;;;;;;5052627;28;20112;-66
2023/01/09 10:47:47;;;;;;;10.50;6.07;;;6.90;99.90;;;;;;5049308;28;20053;-66
2023/01/09 10:50:19;;;;;;;11.05;5.65;;;6.90;99.90;;;;;;5052318;28;20078;-66
2023/01/09 10:52:47;;;;;;;10.48;6.00;;;6.90;99.90;;;;;;5053128;28;20097;-66
2023/01/09 10:55:22;;;;;;;11.63;5.13;;;7.00;99.90;;;;;;5054005;28;20045;-66
2023/01/09 10:58:00;;;;;;;11.57;5.13;;;7.00;99.90;;;;;;5052748;28;20048;-66
2023/01/09 11:00:25;;;;;;;12.85;5.63;;;7.00;99.90;;;;;;5052858;28;20106;-66
2023/01/09 11:02:53;;;;;;;10.93;5.30;;;7.00;99.90;;;;;;5054083;28;20483;-66
2023/01/09 11:05:25;;;;;;;10.23;5.07;;;7.00;99.90;;;;;;5053205;28;20041;-65
2023/01/09 11:07:57;;;;;;;8.98;5.03;;;7.00;99.90;;;;;;5052537;28;20611;-65
2023/01/09 11:10:42;;;;;;;8.48;5.05;;;7.00;99.90;;;;;;5053990;28;20041;-66
2023/01/09 11:13:22;;;;;;;10.20;4.68;;;7.00;99.90;;;;;;5052278;28;20041;-65
2023/01/09 11:16:05;;;;;;;11.32;5.43;;;7.00;99.90;;;;;;5053657;28;20041;-66
2023/01/09 11:18:33;;;;;;;12.15;6.43;;;7.00;99.90;;;;;;5053759;28;20041;-66
2023/01/09 11:21:31;;;;;;;12.63;6.18;;;7.10;99.90;;;;;;5035917;28;20490;-66
2023/01/09 11:24:22;;;;;;;9.20;5.55;;;7.10;99.90;;;;;;5051727;28;20095;-66
2023/01/09 11:26:53;;;;;;;13.65;7.90;;;7.10;99.90;;;;;;5051653;28;20041;-65
2023/01/09 11:29:23;;;;;;;15.13;7.43;;;7.10;99.90;;;;;;5052142;28;20076;-66
2023/01/09 11:31:54;;;;;;;12.48;7.05;;;7.10;99.90;;;;;;5053707;28;20033;-65
2023/01/09 11:34:23;;;;;;;11.05;5.72;;;7.20;99.90;;;;;;5052527;28;20040;-65
2023/01/09 11:36:51;;;;;;;10.82;5.95;;;7.20;99.90;;;;;;5052033;28;20043;-65
2023/01/09 11:39:25;;;;;;;12.30;5.50;;;7.20;99.90;;;;;;5051990;28;20621;-66
2023/01/09 11:42:00;;;;;;;9.93;6.65;;;7.20;99.90;;;;;;5053424;28;20394;-65
2023/01/09 11:44:29;;;;;;;10.60;5.47;;;7.20;99.90;;;;;;5052845;28;20045;-66
2023/01/09 11:46:55;;;;;;;11.77;6.60;;;7.20;99.90;;;;;;5050700;28;20048;-65
2023/01/09 11:49:22;;;;;;;9.98;5.93;;;7.20;99.90;;;;;;5051507;28;20037;-65
2023/01/09 11:52:14;;;;;;;14.15;6.30;;;7.30;99.90;;;;;;5051808;28;20493;-65
2023/01/09 11:55:04;;;;;;;10.95;5.85;;;7.30;99.90;;;;;;5051646;28;20547;-66
2023/01/09 11:57:31;;;;;;;10.73;6.07;;;7.30;99.90;;;;;;5053032;28;20060;-66
2023/01/09 12:00:03;;;;;;;11.23;6.15;;;7.30;99.90;;;;;;5050688;28;21689;-66
2023/01/09 12:02:47;;;;;;;12.82;6.35;;;7.30;99.90;;;;;;5037462;28;20042;-66
2023/01/09 12:05:32;;;;;;;14.40;7.63;;;7.30;99.90;;;;;;5027321;28;20494;-66
2023/01/09 12:08:26;;;;;;;11.15;5.07;;;7.30;99.90;;;;;;5051015;28;20075;-66
2023/01/09 12:11:30;;;;;;;13.98;6.63;;;7.30;99.90;;;;;;5050415;28;20100;-65
2023/01/09 12:14:13;;;;;;;11.48;6.88;;;7.40;99.90;;;;;;5039906;28;20045;-66
2023/01/09 12:16:52;;;;;;;9.85;5.80;;;7.40;99.90;;;;;;5052456;28;20366;-66
2023/01/09 12:19:52;;;;;;;11.10;6.00;;;7.40;99.90;;;;;;5051115;28;20040;-65
2023/01/09 12:22:56;;;;;;;10.63;6.13;;;7.40;99.90;;;;;;5051951;28;20048;-66
2023/01/09 12:25:28;;;;;;;13.48;5.85;;;7.50;99.90;;;;;;5033995;28;20080;-66
2023/01/09 12:28:23;;;;;;;11.93;6.13;;;7.50;99.90;;;;;;5051370;28;20075;-66
2023/01/09 12:30:58;;;;;;;9.82;5.53;;;7.50;99.90;;;;;;5050675;28;20041;-66
2023/01/09 12:33:32;;;;;;;10.95;6.88;;;7.50;99.90;;;;;;5051116;28;20059;-67
2023/01/09 12:36:21;;;;;;;11.48;5.72;;;7.50;99.90;;;;;;5050251;28;20067;-66
2023/01/09 12:38:51;;;;;;;11.00;5.90;;;7.50;99.90;;;;;;5043089;28;20045;-66
2023/01/09 12:41:44;;;;;;;10.30;5.85;;;7.50;99.90;;;;;;5050965;28;20111;-65
2023/01/09 12:44:29;;;;;;;13.52;7.55;;;7.60;99.90;;;;;;5051599;28;20068;-66
2023/01/09 12:47:16;;;;;;;12.63;6.85;;;7.60;99.90;;;;;;5050628;28;20048;-65
2023/01/09 12:50:23;;;;;;;10.70;7.18;;;7.60;99.90;;;;;;5050425;28;20106;-65
2023/01/09 12:53:15;;;;;;;15.07;7.88;;;7.70;99.90;;;;;;5052197;28;20458;-65
2023/01/09 12:55:56;;;;;;;12.00;7.18;;;7.70;99.90;;;;;;5052299;28;20044;-65
2023/01/09 12:58:51;;;;;;;15.02;7.80;;;7.80;99.90;;;;;;5050151;28;20091;-66
2023/01/09 13:01:25;;;;;;;10.82;6.22;;;7.80;99.90;;;;;;5052034;28;20059;-66
2023/01/09 13:03:58;;;;;;;11.75;7.00;;;7.80;99.90;;;;;;5051340;28;20036;-65
2023/01/09 13:06:26;;;;;;;12.65;7.55;;;7.80;99.90;;;;;;5051943;28;20068;-66
2023/01/09 13:09:10;;;;;;;13.70;8.13;;;7.80;99.90;;;;;;5052136;28;20073;-66
2023/01/09 13:11:50;;;;;;;12.63;8.25;;;7.80;99.90;;;;;;5050347;28;20396;-65
2023/01/09 13:14:29;;;;;;;16.70;7.57;;;7.70;99.90;;;;;;5050502;28;20099;-65
2023/01/09 13:16:55;;;;;;;16.38;8.65;;;7.70;99.90;;;;;;5050042;28;20048;-65
2023/01/09 13:19:26;;;;;;;16.95;8.98;;;7.70;99.90;;;;;;5051699;28;20037;-65
2023/01/09 13:21:53;;;;;;;13.57;7.30;;;7.80;99.90;;;;;;5050259;28;20498;-66